Time;durP1;ratioP1;P1;durP2;ratioP2;P2;SDS_P1;SDS_P2;PMS_P1;PMS_P2;Temp;Humidity;BMP_temperature;BMP_pressure;BME280_temperature;BME280_humidity;BME280_pressure;Samples;Min_cycle;Max_cycle;Signal;HPM_P1;HPM_P2
2023/10/13 00:01:26;;;;;;;28.92;19.38;;;;;;;16.15;100.00;100985.88;5071921;28;20109;-46
2023/10/13 00:03:54;;;;;;;28.73;20.33;;;;;;;16.18;100.00;100983.00;5071795;28;20076;-47
2023/10/13 00:06:22;;;;;;;24.02;18.75;;;;;;;16.18;100.00;100983.00;5071795;28;20045;-51
2023/10/13 00:08:50;;;;;;;24.25;19.17;;;;;;;16.19;100.00;100983.81;5071687;28;20500;-48
2023/10/13 00:11:21;;;;;;;23.70;17.17;;;;;;;16.17;100.00;100980.44;5071747;28;20492;-47
2023/10/13 00:13:51;;;;;;;24.73;16.70;;;;;;;16.14;100.00;100970.13;5068814;28;20056;-48
2023/10/13 00:16:21;;;;;;;24.17;15.95;;;;;;;16.17;100.00;100977.78;5067081;28;20098;-48
2023/10/13 00:18:54;;;;;;;21.55;15.27;;;;;;;16.14;100.00;100978.06;5067167;28;20111;-50
2023/10/13 00:21:31;;;;;;;;;;;;;;;16.15;100.00;100969.97;5068483;28;20062;-51
2023/10/13 00:24:01;;;;;;;23.45;16.58;;;;;;;16.18;100.00;100976.84;5069079;28;20271;-48
2023/10/13 00:26:36;;;;;;;22.58;15.93;;;;;;;16.16;100.00;100984.09;5067248;28;20911;-49
2023/10/13 00:29:16;;;;;;;21.20;15.18;;;;;;;16.17;100.00;100967.19;5066906;28;20116;-48
2023/10/13 00:31:48;;;;;;;19.58;15.93;;;;;;;16.12;100.00;100966.78;5068119;28;20076;-46
2023/10/13 00:34:20;;;;;;;25.40;16.42;;;;;;;16.14;100.00;100959.50;5071382;28;20127;-49
2023/10/13 00:37:16;;;;;;;23.30;15.68;;;;;;;16.17;100.00;100954.78;5068456;28;20040;-47
2023/10/13 00:39:44;;;;;;;20.35;15.90;;;;;;;16.17;100.00;100959.22;5067276;28;20049;-48
2023/10/13 00:42:19;;;;;;;24.30;16.42;;;;;;;16.16;100.00;100955.75;5071574;28;20072;-48
2023/10/13 00:44:48;;;;;;;20.35;15.18;;;;;;;16.13;100.00;100958.66;5071568;28;20412;-46
2023/10/13 00:47:36;;;;;;;21.45;15.05;;;;;;;16.13;100.00;100952.50;5071726;28;20140;-46
2023/10/13 00:50:07;;;;;;;21.73;15.32;;;;;;;16.13;100.00;100957.81;5071476;28;20694;-48
2023/10/13 00:52:41;;;;;;;20.75;14.75;;;;;;;16.15;100.00;100954.06;5071530;28;20057;-47
2023/10/13 00:55:11;;;;;;;18.88;14.70;;;;;;;16.18;100.00;100945.00;5070146;28;20044;-49
2023/10/13 00:57:40;;;;;;;22.05;14.85;;;;;;;16.22;100.00;100943.75;5068090;28;20515;-46
2023/10/13 01:00:19;;;;;;;23.35;15.52;;;;;;;16.19;100.00;100949.34;5066117;28;20059;-46
2023/10/13 01:02:55;;;;;;;22.58;15.07;;;;;;;16.21;100.00;100942.06;5070499;28;20682;-47
2023/10/13 01:05:24;;;;;;;21.05;14.27;;;;;;;16.22;100.00;100935.78;5065750;28;20131;-48
2023/10/13 01:07:54;;;;;;;19.77;13.70;;;;;;;16.22;100.00;100925.19;5069926;28;20512;-50
2023/10/13 01:10:27;;;;;;;23.48;13.95;;;;;;;16.22;100.00;100931.34;5071307;28;20391;-47
2023/10/13 01:12:59;;;;;;;19.05;14.32;;;;;;;16.20;100.00;100924.50;5066656;28;20076;-48
2023/10/13 01:15:32;;;;;;;20.63;13.85;;;;;;;16.20;100.00;100927.16;5066445;28;20084;-47
2023/10/13 01:18:11;;;;;;;21.70;14.55;;;;;;;16.16;100.00;100918.59;5067995;28;20044;-47
2023/10/13 01:20:45;;;;;;;19.98;14.18;;;;;;;16.20;100.00;100922.66;5071065;28;20123;-48
2023/10/13 01:23:18;;;;;;;19.33;13.77;;;;;;;16.19;100.00;100918.31;5074242;28;20037;-47
2023/10/13 01:25:47;;;;;;;22.90;13.93;;;;;;;16.18;100.00;100913.16;5069948;28;20048;-48
2023/10/13 01:28:16;;;;;;;22.50;14.30;;;;;;;16.18;100.00;100918.47;5070981;28;20049;-48
2023/10/13 01:30:49;;;;;;;23.15;13.57;;;;;;;16.18;100.00;100907.84;5070848;28;20106;-47
2023/10/13 01:33:25;;;;;;;24.05;12.90;;;;;;;16.21;100.00;100908.44;5071394;28;20068;-49
2023/10/13 01:35:55;;;;;;;17.67;13.43;;;;;;;16.21;100.00;100899.63;5072928;28;20052;-46
2023/10/13 01:38:28;;;;;;;20.35;13.57;;;;;;;16.18;100.00;100905.19;5074783;28;20056;-51
2023/10/13 01:40:58;;;;;;;22.33;12.77;;;;;;;16.19;100.00;100893.63;5071195;28;20044;-46
2023/10/13 01:43:26;;;;;;;19.73;13.52;;;;;;;16.17;100.00;100896.41;5070727;28;20419;-49
2023/10/13 01:45:54;;;;;;;19.58;13.38;;;;;;;16.16;100.00;100892.06;5070620;28;20054;-47
2023/10/13 01:48:24;;;;;;;19.63;13.65;;;;;;;16.14;100.00;100882.56;5071064;28;20526;-48
2023/10/13 01:50:59;;;;;;;19.33;13.38;;;;;;;16.20;100.00;100879.38;5069687;28;20052;-47
2023/10/13 01:53:31;;;;;;;19.45;11.85;;;;;;;16.17;100.00;100875.19;5070760;28;20511;-51
2023/10/13 01:55:59;;;;;;;16.27;11.95;;;;;;;16.20;100.00;100874.06;5072793;28;20044;-49
2023/10/13 01:58:28;;;;;;;18.10;11.70;;;;;;;16.17;100.00;100869.88;5074289;28;20392;-50
2023/10/13 02:00:56;;;;;;;19.23;12.70;;;;;;;16.21;100.00;100865.97;5074184;28;20044;-48
2023/10/13 02:03:27;;;;;;;18.42;11.68;;;;;;;16.20;100.00;100858.16;5074075;28;20049;-50
2023/10/13 02:05:57;;;;;;;20.40;11.98;;;;;;;16.22;100.00;100850.88;5072148;28;20053;-48
2023/10/13 02:08:26;;;;;;;15.95;10.57;;;;;;;16.19;100.00;100856.47;5070280;28;20048;-48
2023/10/13 02:10:56;;;;;;;16.38;10.90;;;;;;;16.15;100.00;100850.59;5072947;28;20048;-48
2023/10/13 02:13:25;;;;;;;16.83;10.60;;;;;;;16.17;100.00;100855.75;5073714;28;20048;-50
2023/10/13 02:15:57;;;;;;;15.65;10.88;;;;;;;16.15;100.00;100847.09;5070145;28;20547;-49
2023/10/13 02:18:34;;;;;;;18.35;10.68;;;;;;;16.17;100.00;100845.16;5071775;28;20056;-47
2023/10/13 02:21:04;;;;;;;17.35;11.18;;;;;;;16.14;100.00;100845.44;5073919;28;20422;-48
2023/10/13 02:23:32;;;;;;;14.68;10.43;;;;;;;16.14;100.00;100837.47;5073802;28;20400;-50
2023/10/13 02:26:03;;;;;;;19.00;11.23;;;;;;;16.12;100.00;100840.25;5073822;28;20056;-50
2023/10/13 02:28:33;;;;;;;18.17;10.88;;;;;;;16.11;100.00;100833.28;5072628;28;20607;-49
2023/10/13 02:31:03;;;;;;;17.17;10.00;;;;;;;16.12;100.00;100831.47;5072735;28;20427;-51
2023/10/13 02:33:32;;;;;;;18.17;10.32;;;;;;;16.12;100.00;100829.66;5071600;28;20051;-50
2023/10/13 02:36:03;;;;;;;15.82;9.98;;;;;;;16.07;100.00;100825.72;5069203;28;20056;-48
2023/10/13 02:38:34;;;;;;;16.25;9.65;;;;;;;16.08;100.00;100806.19;5073311;28;20052;-51
2023/10/13 02:41:06;;;;;;;16.00;9.13;;;;;;;16.08;100.00;100806.19;5073466;28;20136;-48
2023/10/13 02:43:34;;;;;;;16.63;9.27;;;;;;;16.11;100.00;100801.44;5073495;28;20507;-47
2023/10/13 02:46:03;;;;;;;15.02;8.18;;;;;;;16.12;100.00;100802.28;5073177;28;20049;-49
2023/10/13 02:48:39;;;;;;;12.80;8.32;;;;;;;16.11;100.00;100792.66;5073316;28;20143;-49
2023/10/13 02:51:15;;;;;;;12.82;8.25;;;;;;;16.11;100.00;100790.00;5069605;28;20487;-48
2023/10/13 02:53:47;;;;;;;13.05;8.38;;;;;;;16.11;100.00;100787.34;5069971;28;20492;-50
2023/10/13 02:56:21;;;;;;;14.20;8.52;;;;;;;16.09;100.00;100787.50;5071117;28;20484;-50
2023/10/13 02:58:56;;;;;;;17.13;8.52;;;;;;;16.10;100.00;100783.00;5068992;28;20131;-47
2023/10/13 03:01:27;;;;;;;19.02;9.00;;;;;;;16.07;100.00;100776.16;5070057;28;20446;-49
2023/10/13 03:03:58;;;;;;;14.52;7.78;;;;;;;16.10;100.00;100780.34;5071736;28;20053;-49
2023/10/13 03:06:33;;;;;;;17.50;7.65;;;;;;;16.05;100.00;100778.94;5072943;28;20056;-48
2023/10/13 03:09:13;;;;;;;13.93;8.40;;;;;;;16.04;100.00;100771.97;5070188;28;20493;-52
2023/10/13 03:11:48;;;;;;;12.00;8.27;;;;;;;16.08;100.00;100771.72;5067956;28;20048;-49
2023/10/13 03:14:25;;;;;;;14.38;8.15;;;;;;;16.05;100.00;100762.22;5069448;28;20047;-50
2023/10/13 03:16:54;;;;;;;15.75;7.70;;;;;;;16.03;100.00;100754.41;5070978;28;20439;-50
2023/10/13 03:19:22;;;;;;;13.25;7.88;;;;;;;16.01;100.00;100753.69;5070418;28;20074;-47
2023/10/13 03:21:54;;;;;;;20.15;8.60;;;;;;;16.05;100.00;100744.47;5068200;28;20066;-51
2023/10/13 03:24:33;;;;;;;15.85;8.85;;;;;;;16.09;100.00;100738.88;5069403;28;20730;-48
2023/10/13 03:27:09;;;;;;;14.57;8.27;;;;;;;16.02;100.00;100733.28;5066870;28;20127;-49
2023/10/13 03:29:37;;;;;;;11.85;7.70;;;;;;;16.01;100.00;100727.16;5070863;28;20113;-48
2023/10/13 03:32:11;;;;;;;14.05;7.90;;;;;;;16.05;100.00;100727.72;5072455;28;20044;-52
2023/10/13 03:34:54;;;;;;;15.98;8.32;;;;;;;16.02;100.00;100714.72;5072497;28;20531;-47
2023/10/13 03:37:37;;;;;;;;;;;;;;;15.98;100.00;100708.88;5073368;28;20098;-48
2023/10/13 03:40:33;;;;;;;18.15;8.77;;;;;;;15.97;100.00;100712.50;5069519;28;20347;-48
2023/10/13 03:43:04;;;;;;;15.40;8.73;;;;;;;15.96;100.00;100707.34;5067413;28;20483;-49
2023/10/13 03:45:37;;;;;;;14.23;8.30;;;;;;;15.98;100.00;100706.22;5068933;28;20484;-48
2023/10/13 03:48:09;;;;;;;;;;;;;;;16.02;100.00;100702.31;5068841;28;20560;-48
2023/10/13 03:50:46;;;;;;;13.30;8.83;;;;;;;16.02;100.00;100686.41;5068702;28;20381;-49
2023/10/13 03:53:14;;;;;;;18.83;9.27;;;;;;;15.99;100.00;100681.38;5071423;28;20460;-49
2023/10/13 03:55:47;;;;;;;21.25;10.07;;;;;;;16.01;100.00;100691.84;5067256;28;20049;-49
2023/10/13 03:58:17;;;;;;;17.70;10.93;;;;;;;15.99;100.00;100654.88;5069677;28;20048;-48
2023/10/13 04:00:46;;;;;;;20.65;11.98;;;;;;;16.00;100.00;100664.47;5070556;28;20048;-50
2023/10/13 04:03:17;;;;;;;20.30;12.48;;;;;;;16.01;100.00;100649.41;5072024;28;20101;-51
2023/10/13 04:06:00;;;;;;;18.33;11.93;;;;;;;16.03;100.00;100671.31;5072044;28;20500;-48
2023/10/13 04:09:39;;;;;;;17.00;11.73;;;;;;;16.02;100.00;100654.56;5070767;28;20540;-52
2023/10/13 04:12:17;;;;;;;21.73;12.45;;;;;;;16.01;100.00;100644.94;5072019;28;20072;-48
2023/10/13 04:17:26;;;;;;;17.98;11.57;;;;;;;16.05;100.00;100635.72;5072205;28;20553;-45
2023/10/13 04:25:38;;;;;;;17.77;11.25;;;;;;;16.01;100.00;100613.13;5071288;28;19927;-48
2023/10/13 04:28:15;;;;;;;19.40;10.48;;;;;;;16.01;100.00;100601.69;5070132;28;20051;-46
2023/10/13 04:30:58;;;;;;;18.40;10.13;;;;;;;15.99;100.00;100598.31;5071582;28;20055;-47
2023/10/13 04:33:43;;;;;;;17.50;11.90;;;;;;;16.02;100.00;100596.22;5071879;28;20044;-48
2023/10/13 04:36:16;;;;;;;15.38;9.95;;;;;;;16.04;100.00;100588.94;5071565;28;20132;-47
2023/10/13 04:38:56;;;;;;;18.60;9.45;;;;;;;16.02;100.00;100580.31;5071314;28;20052;-45
2023/10/13 04:41:31;;;;;;;17.20;10.02;;;;;;;16.02;100.00;100574.16;5071301;28;20133;-48
2023/10/13 04:44:04;;;;;;;16.75;10.27;;;;;;;16.00;100.00;100576.94;5071682;28;20079;-48
2023/10/13 04:46:40;;;;;;;17.23;9.80;;;;;;;16.00;100.00;100558.38;5070240;28;20044;-48
2023/10/13 04:49:26;;;;;;;16.85;10.50;;;;;;;16.00;100.00;100549.59;5071553;28;20075;-48
2023/10/13 04:52:12;;;;;;;20.15;11.57;;;;;;;16.01;100.00;100540.69;5071507;28;20049;-47
2023/10/13 04:54:45;;;;;;;22.10;11.90;;;;;;;16.09;100.00;100526.69;5074980;28;20404;-47
2023/10/13 04:57:31;;;;;;;20.58;13.30;;;;;;;16.11;100.00;100522.09;5075507;28;20044;-49
2023/10/13 05:03:17;;;;;;;25.27;15.80;;;;;;;16.07;100.00;100512.75;5075103;28;20506;-47
2023/10/13 05:44:37;;;;;;;22.88;13.30;;;;;;;16.64;100.00;100500.22;5073474;28;20052;-47
2023/10/13 05:50:13;;;;;;;21.40;13.02;;;;;;;16.69;100.00;100491.81;5061448;28;20060;-45
2023/10/13 06:28:49;;;;;;;16.90;10.05;;;;;;;16.77;100.00;100483.09;5073659;28;20055;-45
2023/10/13 06:31:22;;;;;;;13.90;8.85;;;;;;;16.78;100.00;100480.28;5073471;28;20044;-46
2023/10/13 06:33:51;;;;;;;16.08;8.88;;;;;;;16.80;100.00;100475.69;5073624;28;20052;-48
2023/10/13 06:36:19;;;;;;;16.40;9.20;;;;;;;16.84;100.00;100477.03;5073773;28;20488;-48
2023/10/13 06:38:54;;;;;;;14.90;8.90;;;;;;;16.84;100.00;100474.38;5073850;28;20040;-48
2023/10/13 06:41:31;;;;;;;14.05;8.23;;;;;;;16.82;100.00;100464.91;5073330;28;20060;-47
2023/10/13 06:44:05;;;;;;;12.93;8.20;;;;;;;16.88;100.00;100466.97;5073065;28;20057;-47
2023/10/13 06:46:35;;;;;;;14.20;8.57;;;;;;;16.86;100.00;100468.94;5073355;28;20041;-48
2023/10/13 06:49:03;;;;;;;16.92;8.25;;;;;;;16.90;100.00;100463.19;5073331;28;20120;-47
2023/10/13 06:51:37;;;;;;;13.68;7.60;;;;;;;16.94;100.00;100466.38;5073496;28;20047;-46
2023/10/13 06:54:19;;;;;;;13.48;8.10;;;;;;;16.94;100.00;100461.06;5073486;28;20534;-47
2023/10/13 06:56:52;;;;;;;11.68;7.65;;;;;;;16.94;100.00;100463.72;5073178;28;20544;-48
2023/10/13 06:59:26;;;;;;;15.55;8.75;;;;;;;16.96;100.00;100459.13;5073138;28;20072;-47
2023/10/13 07:02:01;;;;;;;13.30;7.65;;;;;;;16.96;100.00;100460.91;5073172;28;20048;-50
2023/10/13 07:04:47;;;;;;;12.70;7.68;;;;;;;16.96;100.00;100448.50;5073055;28;20051;-47
2023/10/13 07:07:16;;;;;;;14.40;7.40;;;;;;;17.02;100.00;100444.38;5071532;28;20048;-49
2023/10/13 07:09:49;;;;;;;13.00;8.25;;;;;;;17.03;100.00;100440.75;5072824;28;20127;-46
2023/10/13 07:12:26;;;;;;;11.75;7.53;;;;;;;17.10;100.00;100441.81;5072860;28;20373;-44
2023/10/13 07:14:59;;;;;;;13.27;8.02;;;;;;;17.08;100.00;100434.97;5072868;28;20373;-48
2023/10/13 07:17:32;;;;;;;13.38;8.07;;;;;;;17.09;100.00;100444.63;5072290;28;20555;-47
2023/10/13 07:20:14;;;;;;;13.25;8.43;;;;;;;17.06;100.00;100435.94;5072680;28;20063;-49
2023/10/13 07:22:54;;;;;;;13.95;7.85;;;;;;;17.08;100.00;100434.97;5072694;28;20135;-48
2023/10/13 07:25:25;;;;;;;12.50;7.40;;;;;;;17.07;100.00;100426.19;5072581;28;20052;-49
2023/10/13 07:27:56;;;;;;;13.40;7.57;;;;;;;17.03;100.00;100425.63;5072356;28;20048;-48
2023/10/13 07:30:30;;;;;;;16.92;8.52;;;;;;;17.05;100.00;100428.97;5072922;28;20184;-47
2023/10/13 07:32:59;;;;;;;17.10;7.88;;;;;;;17.11;100.00;100416.91;5072235;28;20051;-47
2023/10/13 07:35:31;;;;;;;12.75;7.57;;;;;;;17.09;100.00;100412.75;5072309;28;20045;-46
2023/10/13 07:38:00;;;;;;;12.40;7.40;;;;;;;17.08;100.00;100408.41;5071267;28;20055;-47
2023/10/13 07:40:50;;;;;;;15.65;7.35;;;;;;;17.09;100.00;100410.91;5072284;28;20499;-46
2023/10/13 07:43:22;;;;;;;11.07;7.82;;;;;;;17.09;100.00;100402.94;5072083;28;20048;-46
2023/10/13 07:45:53;;;;;;;16.23;7.60;;;;;;;17.05;100.00;100397.09;5072436;28;20381;-45
2023/10/13 07:48:23;;;;;;;16.40;7.80;;;;;;;17.08;100.00;100390.63;5072201;28;20131;-47
2023/10/13 07:51:03;;;;;;;14.30;8.10;;;;;;;17.10;100.00;100380.69;5072153;28;20056;-47
2023/10/13 07:53:35;;;;;;;16.02;7.43;;;;;;;17.10;100.00;100379.84;5072121;28;20052;-47
2023/10/13 07:56:05;;;;;;;15.88;7.60;;;;;;;17.14;100.00;100378.56;5072142;28;20131;-47
2023/10/13 07:58:35;;;;;;;18.10;8.18;;;;;;;17.14;100.00;100375.91;5071988;28;20040;-46
2023/10/13 08:01:16;;;;;;;16.08;7.18;;;;;;;17.21;100.00;100364.50;5072164;28;20127;-47
2023/10/13 08:03:46;;;;;;;16.25;7.78;;;;;;;17.18;100.00;100353.38;5070670;28;20051;-46
2023/10/13 08:06:25;;;;;;;17.02;7.35;;;;;;;17.23;100.00;100356.38;5070644;28;20450;-47
2023/10/13 08:09:07;;;;;;;14.07;7.32;;;;;;;17.24;100.00;100379.31;5071892;28;20504;-46
2023/10/13 08:11:37;;;;;;;18.95;7.55;;;;;;;17.27;100.00;100363.03;5071974;28;20082;-48
2023/10/13 08:14:22;;;;;;;18.85;6.97;;;;;;;17.30;100.00;100349.47;5072173;28;20779;-45
2023/10/13 08:17:07;;;;;;;15.20;7.18;;;;;;;17.30;100.00;100341.50;5071784;28;20053;-47
2023/10/13 08:19:44;;;;;;;18.08;7.22;;;;;;;17.29;100.00;100354.91;5072020;28;20059;-45
2023/10/13 08:22:35;;;;;;;15.70;7.10;;;;;;;17.35;100.00;100355.13;5071917;28;20098;-47
2023/10/13 08:25:20;;;;;;;19.02;7.15;;;;;;;17.37;100.00;100360.31;5071749;28;19920;-48
2023/10/13 08:28:45;;;;;;;16.08;8.07;;;;;;;17.42;100.00;100362.50;5070467;28;20088;-49
2023/10/13 08:30:55;;;;;;;15.13;7.22;;;;;;;17.46;100.00;100346.06;5071682;28;20143;-47
2023/10/13 08:33:27;;;;;;;14.48;7.32;;;;;;;17.50;100.00;100349.25;5071725;28;20064;-49
2023/10/13 08:36:05;;;;;;;15.73;7.40;;;;;;;17.62;100.00;100341.84;5071671;28;20438;-47
2023/10/13 08:38:50;;;;;;;16.67;7.35;;;;;;;17.65;100.00;100342.34;5071594;28;20056;-47
2023/10/13 08:41:31;;;;;;;18.77;8.20;;;;;;;17.68;100.00;100341.19;5071580;28;20044;-46
2023/10/13 08:44:04;;;;;;;16.88;7.03;;;;;;;17.74;100.00;100349.38;5071325;28;20541;-47
2023/10/13 08:49:17;;;;;;;15.90;7.45;;;;;;;17.91;100.00;100349.44;5062750;28;20056;-46
2023/10/13 08:51:48;;;;;;;17.40;7.07;;;;;;;18.00;100.00;100353.03;5071704;28;20515;-47
2023/10/13 08:54:33;;;;;;;17.48;7.25;;;;;;;18.01;100.00;100334.25;5071844;28;20049;-45
2023/10/13 08:57:33;;;;;;;22.90;7.60;;;;;;;18.08;100.00;100339.75;5071822;28;20534;-45
2023/10/13 09:06:00;;;;;;;17.48;7.03;;;;;;;18.19;100.00;100298.72;5071119;28;20084;-46
2023/10/13 09:08:35;;;;;;;15.98;6.63;;;;;;;18.29;100.00;100307.38;5071403;28;20068;-48
2023/10/13 09:11:12;;;;;;;17.70;6.53;;;;;;;18.32;100.00;100299.03;5070070;28;20061;-48
2023/10/13 09:13:46;;;;;;;15.13;6.60;;;;;;;18.37;100.00;100295.91;5071400;28;20041;-47
2023/10/13 09:16:22;;;;;;;17.42;6.78;;;;;;;18.41;100.00;100303.38;5071164;28;20052;-46
2023/10/13 09:18:52;;;;;;;14.25;6.30;;;;;;;18.44;100.00;100314.72;5071267;28;20037;-48
2023/10/13 09:21:47;;;;;;;17.02;6.43;;;;;;;18.52;100.00;100317.38;5071271;28;20133;-47
2023/10/13 09:24:21;;;;;;;16.23;6.57;;;;;;;18.64;100.00;100309.88;5070921;28;20056;-48
2023/10/13 09:26:56;;;;;;;16.90;6.80;;;;;;;18.66;100.00;100299.91;5071032;28;20037;-49
2023/10/13 09:29:24;;;;;;;14.05;6.30;;;;;;;18.67;100.00;100297.09;5070930;28;20672;-53
2023/10/13 09:32:02;;;;;;;14.10;6.57;;;;;;;18.66;100.00;100300.75;5071114;28;20044;-46
2023/10/13 09:34:33;;;;;;;15.63;6.25;;;;;;;18.70;100.00;100291.41;5071132;28;20036;-47
2023/10/13 09:37:04;;;;;;;14.95;5.90;;;;;;;18.67;100.00;100275.78;5071061;28;20048;-47
2023/10/13 09:39:44;;;;;;;18.52;6.25;;;;;;;18.69;100.00;100280.94;5072377;28;20499;-49
2023/10/13 09:42:15;;;;;;;16.88;7.00;;;;;;;18.65;100.00;100272.47;5074230;28;20071;-48
2023/10/13 09:44:51;;;;;;;13.80;5.82;;;;;;;18.69;100.00;100272.94;5073326;28;20055;-48
2023/10/13 09:47:29;;;;;;;12.60;6.10;;;;;;;18.69;100.00;100279.13;5073450;28;20553;-50
2023/10/13 09:50:05;;;;;;;16.95;6.45;;;;;;;18.68;100.00;100282.78;5074376;28;20058;-47
2023/10/13 09:52:37;;;;;;;16.33;5.88;;;;;;;18.72;100.00;100269.97;5074615;28;20503;-48
2023/10/13 09:55:22;;;;;;;18.67;5.97;;;;;;;18.80;100.00;100269.13;5074214;28;20040;-47
2023/10/13 09:57:58;;;;;;;15.77;6.00;;;;;;;18.81;100.00;100268.94;5072988;28;20055;-49
2023/10/13 10:00:46;;;;;;;17.00;6.20;;;;;;;18.87;100.00;100270.09;5074259;28;20141;-46
2023/10/13 10:06:13;;;;;;;19.88;6.13;;;;;;;18.91;100.00;100284.81;5074229;28;20076;-45
2023/10/13 10:08:48;;;;;;;15.75;6.00;;;;;;;18.93;100.00;100272.13;5072972;28;20159;-47
2023/10/13 10:11:40;;;;;;;;;;;;;;;18.95;100.00;100272.81;5074707;28;20083;-46
2023/10/13 10:14:17;;;;;;;14.45;6.03;;;;;;;19.01;100.00;100255.31;5074082;28;19973;-48
2023/10/13 10:16:59;;;;;;;14.98;5.85;;;;;;;19.13;100.00;100256.63;5074160;28;20060;-47
2023/10/13 10:19:35;;;;;;;15.45;5.82;;;;;;;19.14;100.00;100262.78;5074088;28;20139;-45
2023/10/13 10:22:16;;;;;;;14.70;6.85;;;;;;;19.18;100.00;100258.75;5072638;28;20511;-46
2023/10/13 10:24:46;;;;;;;16.80;6.43;;;;;;;19.22;100.00;100257.41;5073856;28;20047;-48
2023/10/13 10:27:25;;;;;;;16.52;6.35;;;;;;;19.26;100.00;100253.41;5072441;28;20572;-49
2023/10/13 10:29:56;;;;;;;13.02;7.07;;;;;;;19.28;100.00;100251.41;5073729;28;20048;-46
2023/10/13 10:32:34;;;;;;;13.18;5.70;;;;;;;19.33;100.00;100237.56;5073986;28;20048;-48
2023/10/13 10:35:14;;;;;;;15.13;5.43;;;;;;;19.37;100.00;100245.06;5073735;28;20049;-46
2023/10/13 10:37:49;;;;;;;15.88;5.82;;;;;;;19.35;100.00;100247.06;5074061;28;20056;-46
2023/10/13 10:40:34;;;;;;;15.93;5.45;;;;;;;19.37;100.00;100238.88;5073469;28;20048;-45
2023/10/13 10:43:08;;;;;;;14.25;5.95;;;;;;;19.34;100.00;100242.72;5070625;28;20064;-47
2023/10/13 10:45:59;;;;;;;17.10;6.35;;;;;;;19.30;100.00;100241.41;5069787;28;20132;-47
2023/10/13 10:48:34;;;;;;;16.08;6.05;;;;;;;19.39;100.00;100226.22;5070022;28;20052;-47
2023/10/13 10:51:13;;;;;;;16.75;6.35;;;;;;;19.44;100.00;100223.84;5068401;28;20494;-47
2023/10/13 10:53:46;;;;;;;12.95;5.97;;;;;;;19.42;100.00;100210.69;5071829;28;20044;-47
2023/10/13 10:56:24;;;;;;;18.08;6.53;;;;;;;19.45;100.00;100208.69;5073289;28;20052;-47
2023/10/13 10:58:59;;;;;;;13.00;5.20;;;;;;;19.46;100.00;100203.19;5072278;28;20055;-46
2023/10/13 11:01:38;;;;;;;19.63;6.63;;;;;;;19.48;100.00;100200.34;5070016;28;20040;-47
2023/10/13 11:04:18;;;;;;;16.75;5.95;;;;;;;19.53;100.00;100203.34;5071227;28;20048;-46
2023/10/13 11:06:48;;;;;;;14.23;6.00;;;;;;;19.61;100.00;100195.28;5071640;28;20511;-46
2023/10/13 11:09:31;;;;;;;16.02;6.32;;;;;;;19.63;100.00;100201.25;5072665;28;20052;-47
2023/10/13 11:12:15;;;;;;;14.90;5.70;;;;;;;19.75;100.00;100209.72;5072861;28;20044;-45
2023/10/13 11:14:48;;;;;;;16.52;6.07;;;;;;;19.86;100.00;100195.19;5072813;28;20065;-46
2023/10/13 11:17:25;;;;;;;16.65;6.20;;;;;;;19.91;100.00;100176.81;5068115;28;20507;-46
2023/10/13 11:19:54;;;;;;;13.48;6.53;;;;;;;19.95;100.00;100198.59;5069979;28;20056;-46
2023/10/13 11:22:41;;;;;;;14.05;6.00;;;;;;;19.92;100.00;100189.97;5072789;28;20144;-46
2023/10/13 11:25:11;;;;;;;16.05;6.68;;;;;;;19.97;100.00;100177.94;5072614;28;20048;-46
2023/10/13 11:27:56;;;;;;;15.82;6.22;;;;;;;20.00;100.00;100180.22;5067394;28;20044;-47
2023/10/13 11:30:29;;;;;;;18.15;6.40;;;;;;;19.90;100.00;100177.81;5069285;28;20098;-46
2023/10/13 11:32:58;;;;;;;13.38;5.60;;;;;;;19.93;100.00;100174.78;5072425;28;20049;-46
2023/10/13 11:35:48;;;;;;;13.73;5.72;;;;;;;19.96;100.00;100161.09;5070540;28;20045;-46
2023/10/13 11:38:25;;;;;;;15.25;6.03;;;;;;;20.09;100.00;100168.50;5067577;28;20134;-48
2023/10/13 11:41:14;;;;;;;15.95;5.90;;;;;;;20.23;100.00;100172.22;5067122;28;20123;-47
2023/10/13 11:49:18;;;;;;;15.93;6.35;;;;;;;20.19;100.00;100142.41;5070115;28;20383;-46
2023/10/13 11:51:48;;;;;;;15.73;5.82;;;;;;;20.30;100.00;100132.28;5072416;28;20052;-46
2023/10/13 11:54:21;;;;;;;17.80;6.47;;;;;;;20.34;100.00;100128.25;5072249;28;20045;-46
2023/10/13 11:56:52;;;;;;;16.38;6.13;;;;;;;20.32;100.00;100124.94;5072240;28;20487;-46
2023/10/13 11:59:24;;;;;;;15.45;6.07;;;;;;;20.35;100.00;100112.03;5072112;28;20102;-47
2023/10/13 12:04:51;;;;;;;16.05;6.30;;;;;;;20.48;100.00;100102.56;5072042;28;20033;-48
2023/10/13 12:07:21;;;;;;;13.75;5.95;;;;;;;20.46;100.00;100113.44;5071933;28;20078;-46
2023/10/13 12:10:06;;;;;;;19.75;6.65;;;;;;;20.47;100.00;100099.06;5071962;28;20143;-46
2023/10/13 12:12:43;;;;;;;16.55;6.05;;;;;;;20.59;100.00;100115.50;5071953;28;20044;-47
2023/10/13 12:15:14;;;;;;;17.30;6.07;;;;;;;20.66;100.00;100121.75;5071823;28;20048;-48
2023/10/13 12:17:44;;;;;;;16.23;6.10;;;;;;;20.72;100.00;100106.84;5071939;28;20072;-46
2023/10/13 12:20:24;;;;;;;17.77;6.25;;;;;;;20.83;100.00;100092.19;5071951;28;20519;-46
2023/10/13 12:22:55;;;;;;;16.60;6.40;;;;;;;20.84;100.00;100097.34;5071739;28;20052;-47
2023/10/13 12:25:44;;;;;;;19.63;6.38;;;;;;;20.89;100.00;100094.97;5071646;28;20037;-46
2023/10/13 12:28:18;;;;;;;14.95;6.20;;;;;;;20.91;100.00;100105.47;5071440;28;20565;-49
2023/10/13 12:30:50;;;;;;;18.30;7.00;;;;;;;20.90;100.00;100093.97;5071848;28;20456;-51
2023/10/13 12:33:24;;;;;;;18.67;6.68;;;;;;;20.88;100.00;100101.31;5071573;28;20051;-51
2023/10/13 12:36:06;;;;;;;16.10;6.43;;;;;;;20.94;100.00;100115.78;5071775;28;20037;-50
2023/10/13 12:38:50;;;;;;;19.42;6.93;;;;;;;21.00;100.00;100115.03;5068958;28;20426;-50
2023/10/13 12:49:49;;;;;;;18.45;6.90;;;;;;;21.15;100.00;100101.66;5068055;28;20048;-49
2023/10/13 12:52:19;;;;;;;14.48;6.70;;;;;;;21.11;100.00;100093.19;5069542;28;20049;-46
2023/10/13 12:54:58;;;;;;;14.73;6.32;;;;;;;21.14;100.00;100096.50;5069346;28;20518;-48
2023/10/13 12:57:27;;;;;;;15.75;5.85;;;;;;;21.06;100.00;100092.91;5065305;28;20059;-47
2023/10/13 12:59:57;;;;;;;18.60;6.13;;;;;;;21.06;100.00;100092.09;5071244;28;20051;-48
2023/10/13 13:02:27;;;;;;;15.18;6.25;;;;;;;21.11;100.00;100095.84;5069641;28;20045;-48
2023/10/13 13:05:05;;;;;;;18.38;6.40;;;;;;;21.11;100.00;100095.03;5067513;28;20470;-47
2023/10/13 13:07:43;;;;;;;17.35;6.32;;;;;;;21.10;100.00;100096.88;5068050;28;20048;-48
2023/10/13 13:10:13;;;;;;;18.20;6.28;;;;;;;21.14;100.00;100089.31;5070900;28;20062;-47
2023/10/13 13:12:42;;;;;;;18.63;5.60;;;;;;;21.15;100.00;100088.28;5070560;28;20045;-47
2023/10/13 13:15:12;;;;;;;16.77;5.88;;;;;;;21.16;100.00;100089.09;5069926;28;20066;-49
2023/10/13 13:17:40;;;;;;;16.83;6.18;;;;;;;21.17;100.00;100090.78;5073615;28;20050;-47
2023/10/13 13:20:25;;;;;;;16.42;5.88;;;;;;;21.21;100.00;100084.03;5073667;28;20074;-47
2023/10/13 13:22:55;;;;;;;17.02;5.88;;;;;;;21.18;100.00;100087.91;5074938;28;20079;-47
2023/10/13 13:25:30;;;;;;;16.75;6.10;;;;;;;21.18;100.00;100095.94;5072520;28;20407;-51
2023/10/13 13:28:04;;;;;;;15.98;5.95;;;;;;;21.17;100.00;100096.13;5069241;28;20156;-48
2023/10/13 13:30:34;;;;;;;17.75;6.07;;;;;;;21.16;100.00;100089.97;5074028;28;20505;-47
2023/10/13 13:33:09;;;;;;;26.58;6.15;;;;;;;21.16;100.00;100092.63;5071735;28;20131;-47
2023/10/13 13:35:38;;;;;;;16.92;6.30;;;;;;;21.16;100.00;100097.13;5072035;28;20041;-50
2023/10/13 13:38:16;;;;;;;15.10;5.72;;;;;;;21.16;100.00;100087.28;5075063;28;20048;-48
2023/10/13 13:40:48;;;;;;;17.33;6.38;;;;;;;21.21;100.00;100086.72;5074652;28;20454;-47
2023/10/13 13:43:31;;;;;;;;;;;;;;;21.21;100.00;100078.69;5074923;28;20072;-47